<?xml version="1.0" encoding="UTF-8" standalone="no" ?>
<gpx xmlns="http://www.topografix.com/GPX/1/1" xmlns:xsi="http://www.w3.org/2001/XMLSchema-instance" xsi:schemaLocation="http://www.topografix.com/GPX/1/1 http://www.topografix.com/GPX/1/1/gpx.xsd" version="1.1" creator="VisuGPX - https://www.visugpx.com">
  <metadata>
    <name>BOIS DE MORVAL 2</name>
    <desc><![CDATA[XXXXXXXXXXXXXXXXXXXXXXXXXXXXXXXXXXXXXXXXXXXXXXXXXXXX]]></desc>
  </metadata>
  <trk>
    <name><![CDATA[20181205151433-x5kJE]]></name>
    <trkseg>
      <trkpt lat="49.10938" lon="1.85115">
        <ele>99</ele>
        <time>2018-12-05T15:06:59Z</time>
      </trkpt>
      <trkpt lat="49.10911" lon="1.85083">
        <ele>96</ele>
        <time>2018-12-05T15:07:59Z</time>
      </trkpt>
      <trkpt lat="49.10884" lon="1.8502">
        <ele>96</ele>
        <time>2018-12-05T15:08:59Z</time>
      </trkpt>
      <trkpt lat="49.10843" lon="1.84974">
        <ele>96</ele>
        <time>2018-12-05T15:09:59Z</time>
      </trkpt>
      <trkpt lat="49.10815" lon="1.84953">
        <ele>96</ele>
        <time>2018-12-05T15:10:59Z</time>
      </trkpt>
      <trkpt lat="49.10809" lon="1.84944">
        <ele>96</ele>
        <time>2018-12-05T15:11:59Z</time>
      </trkpt>
      <trkpt lat="49.1077" lon="1.84905">
        <ele>96</ele>
        <time>2018-12-05T15:12:59Z</time>
      </trkpt>
      <trkpt lat="49.10734" lon="1.84869">
        <ele>97</ele>
        <time>2018-12-05T15:13:59Z</time>
      </trkpt>
      <trkpt lat="49.10699" lon="1.84836">
        <ele>97</ele>
        <time>2018-12-05T15:14:59Z</time>
      </trkpt>
      <trkpt lat="49.10645" lon="1.84784">
        <ele>98</ele>
        <time>2018-12-05T15:15:59Z</time>
      </trkpt>
      <trkpt lat="49.10603" lon="1.84735">
        <ele>100</ele>
        <time>2018-12-05T15:16:59Z</time>
      </trkpt>
      <trkpt lat="49.10576" lon="1.84652">
        <ele>103</ele>
        <time>2018-12-05T15:17:59Z</time>
      </trkpt>
      <trkpt lat="49.10534" lon="1.84528">
        <ele>106</ele>
        <time>2018-12-05T15:18:59Z</time>
      </trkpt>
      <trkpt lat="49.1051" lon="1.84401">
        <ele>105</ele>
        <time>2018-12-05T15:19:59Z</time>
      </trkpt>
      <trkpt lat="49.10499" lon="1.84277">
        <ele>103</ele>
        <time>2018-12-05T15:20:59Z</time>
      </trkpt>
      <trkpt lat="49.10502" lon="1.84149">
        <ele>105</ele>
        <time>2018-12-05T15:21:59Z</time>
      </trkpt>
      <trkpt lat="49.10481" lon="1.83992">
        <ele>111</ele>
        <time>2018-12-05T15:22:59Z</time>
      </trkpt>
      <trkpt lat="49.10455" lon="1.83905">
        <ele>112</ele>
        <time>2018-12-05T15:23:59Z</time>
      </trkpt>
      <trkpt lat="49.10414" lon="1.83846">
        <ele>112</ele>
        <time>2018-12-05T15:24:59Z</time>
      </trkpt>
      <trkpt lat="49.10376" lon="1.83782">
        <ele>116</ele>
        <time>2018-12-05T15:25:59Z</time>
      </trkpt>
      <trkpt lat="49.10341" lon="1.83712">
        <ele>117</ele>
        <time>2018-12-05T15:26:59Z</time>
      </trkpt>
      <trkpt lat="49.10311" lon="1.83651">
        <ele>119</ele>
        <time>2018-12-05T15:27:59Z</time>
      </trkpt>
      <trkpt lat="49.10299" lon="1.83598">
        <ele>121</ele>
        <time>2018-12-05T15:28:59Z</time>
      </trkpt>
      <trkpt lat="49.10337" lon="1.83553">
        <ele>120</ele>
        <time>2018-12-05T15:29:59Z</time>
      </trkpt>
      <trkpt lat="49.10363" lon="1.83458">
        <ele>122</ele>
        <time>2018-12-05T15:30:59Z</time>
      </trkpt>
      <trkpt lat="49.10398" lon="1.8338">
        <ele>122</ele>
        <time>2018-12-05T15:31:59Z</time>
      </trkpt>
      <trkpt lat="49.10381" lon="1.83342">
        <ele>123</ele>
        <time>2018-12-05T15:32:59Z</time>
      </trkpt>
      <trkpt lat="49.10337" lon="1.83321">
        <ele>126</ele>
        <time>2018-12-05T15:33:59Z</time>
      </trkpt>
      <trkpt lat="49.10239" lon="1.83304">
        <ele>129</ele>
        <time>2018-12-05T15:34:59Z</time>
      </trkpt>
      <trkpt lat="49.10257" lon="1.83221">
        <ele>129</ele>
        <time>2018-12-05T15:35:59Z</time>
      </trkpt>
      <trkpt lat="49.10271" lon="1.83136">
        <ele>130</ele>
        <time>2018-12-05T15:36:59Z</time>
      </trkpt>
      <trkpt lat="49.1029" lon="1.83061">
        <ele>129</ele>
        <time>2018-12-05T15:37:59Z</time>
      </trkpt>
      <trkpt lat="49.10298" lon="1.82978">
        <ele>126</ele>
        <time>2018-12-05T15:38:59Z</time>
      </trkpt>
      <trkpt lat="49.10382" lon="1.8279">
        <ele>123</ele>
        <time>2018-12-05T15:39:59Z</time>
      </trkpt>
      <trkpt lat="49.10422" lon="1.82693">
        <ele>124</ele>
        <time>2018-12-05T15:40:59Z</time>
      </trkpt>
      <trkpt lat="49.10488" lon="1.82577">
        <ele>124</ele>
        <time>2018-12-05T15:41:59Z</time>
      </trkpt>
      <trkpt lat="49.10541" lon="1.8249">
        <ele>125</ele>
        <time>2018-12-05T15:42:59Z</time>
      </trkpt>
      <trkpt lat="49.10585" lon="1.8242">
        <ele>126</ele>
        <time>2018-12-05T15:43:59Z</time>
      </trkpt>
      <trkpt lat="49.10639" lon="1.82283">
        <ele>125</ele>
        <time>2018-12-05T15:44:59Z</time>
      </trkpt>
      <trkpt lat="49.10699" lon="1.82126">
        <ele>126</ele>
        <time>2018-12-05T15:45:59Z</time>
      </trkpt>
      <trkpt lat="49.10753" lon="1.81978">
        <ele>127</ele>
        <time>2018-12-05T15:46:59Z</time>
      </trkpt>
      <trkpt lat="49.1081" lon="1.81832">
        <ele>131</ele>
        <time>2018-12-05T15:47:59Z</time>
      </trkpt>
      <trkpt lat="49.10876" lon="1.8165">
        <ele>133</ele>
        <time>2018-12-05T15:48:59Z</time>
      </trkpt>
      <trkpt lat="49.10942" lon="1.81529">
        <ele>133</ele>
        <time>2018-12-05T15:49:59Z</time>
      </trkpt>
      <trkpt lat="49.11004" lon="1.81399">
        <ele>131</ele>
        <time>2018-12-05T15:50:59Z</time>
      </trkpt>
      <trkpt lat="49.11066" lon="1.8126">
        <ele>130</ele>
        <time>2018-12-05T15:51:59Z</time>
      </trkpt>
      <trkpt lat="49.11117" lon="1.81148">
        <ele>128</ele>
        <time>2018-12-05T15:52:59Z</time>
      </trkpt>
      <trkpt lat="49.1118" lon="1.81002">
        <ele>130</ele>
        <time>2018-12-05T15:53:59Z</time>
      </trkpt>
      <trkpt lat="49.11206" lon="1.80948">
        <ele>130</ele>
        <time>2018-12-05T15:54:59Z</time>
      </trkpt>
      <trkpt lat="49.11288" lon="1.81043">
        <ele>132</ele>
        <time>2018-12-05T15:55:59Z</time>
      </trkpt>
      <trkpt lat="49.11367" lon="1.81144">
        <ele>134</ele>
        <time>2018-12-05T15:56:59Z</time>
      </trkpt>
      <trkpt lat="49.11446" lon="1.81247">
        <ele>137</ele>
        <time>2018-12-05T15:57:59Z</time>
      </trkpt>
      <trkpt lat="49.11517" lon="1.81328">
        <ele>139</ele>
        <time>2018-12-05T15:58:59Z</time>
      </trkpt>
      <trkpt lat="49.11616" lon="1.81446">
        <ele>139</ele>
        <time>2018-12-05T15:59:59Z</time>
      </trkpt>
      <trkpt lat="49.11713" lon="1.8155">
        <ele>139</ele>
        <time>2018-12-05T16:00:59Z</time>
      </trkpt>
      <trkpt lat="49.11798" lon="1.8165">
        <ele>135</ele>
        <time>2018-12-05T16:01:59Z</time>
      </trkpt>
      <trkpt lat="49.11862" lon="1.81715">
        <ele>135</ele>
        <time>2018-12-05T16:02:59Z</time>
      </trkpt>
      <trkpt lat="49.1181" lon="1.8183">
        <ele>138</ele>
        <time>2018-12-05T16:03:59Z</time>
      </trkpt>
      <trkpt lat="49.11749" lon="1.81947">
        <ele>141</ele>
        <time>2018-12-05T16:04:59Z</time>
      </trkpt>
      <trkpt lat="49.11698" lon="1.82041">
        <ele>142</ele>
        <time>2018-12-05T16:05:59Z</time>
      </trkpt>
      <trkpt lat="49.11648" lon="1.82142">
        <ele>142</ele>
        <time>2018-12-05T16:06:59Z</time>
      </trkpt>
      <trkpt lat="49.11596" lon="1.82241">
        <ele>144</ele>
        <time>2018-12-05T16:07:59Z</time>
      </trkpt>
      <trkpt lat="49.11548" lon="1.82334">
        <ele>144</ele>
        <time>2018-12-05T16:08:59Z</time>
      </trkpt>
      <trkpt lat="49.1156" lon="1.82411">
        <ele>145</ele>
        <time>2018-12-05T16:09:59Z</time>
      </trkpt>
      <trkpt lat="49.1156" lon="1.82536">
        <ele>143</ele>
        <time>2018-12-05T16:10:59Z</time>
      </trkpt>
      <trkpt lat="49.11591" lon="1.82649">
        <ele>145</ele>
        <time>2018-12-05T16:11:59Z</time>
      </trkpt>
      <trkpt lat="49.11658" lon="1.82763">
        <ele>147</ele>
        <time>2018-12-05T16:12:59Z</time>
      </trkpt>
      <trkpt lat="49.11666" lon="1.8281">
        <ele>149</ele>
        <time>2018-12-05T16:13:59Z</time>
      </trkpt>
      <trkpt lat="49.1163" lon="1.82918">
        <ele>147</ele>
        <time>2018-12-05T16:14:59Z</time>
      </trkpt>
      <trkpt lat="49.11614" lon="1.83025">
        <ele>144</ele>
        <time>2018-12-05T16:15:59Z</time>
      </trkpt>
      <trkpt lat="49.11596" lon="1.83118">
        <ele>143</ele>
        <time>2018-12-05T16:16:59Z</time>
      </trkpt>
      <trkpt lat="49.11587" lon="1.83207">
        <ele>140</ele>
        <time>2018-12-05T16:17:59Z</time>
      </trkpt>
      <trkpt lat="49.11574" lon="1.8327">
        <ele>137</ele>
        <time>2018-12-05T16:18:59Z</time>
      </trkpt>
      <trkpt lat="49.11543" lon="1.83335">
        <ele>136</ele>
        <time>2018-12-05T16:19:59Z</time>
      </trkpt>
      <trkpt lat="49.11647" lon="1.83398">
        <ele>127</ele>
        <time>2018-12-05T16:20:59Z</time>
      </trkpt>
      <trkpt lat="49.11739" lon="1.83459">
        <ele>131</ele>
        <time>2018-12-05T16:21:59Z</time>
      </trkpt>
      <trkpt lat="49.11852" lon="1.83521">
        <ele>138</ele>
        <time>2018-12-05T16:22:59Z</time>
      </trkpt>
      <trkpt lat="49.11864" lon="1.83586">
        <ele>137</ele>
        <time>2018-12-05T16:23:59Z</time>
      </trkpt>
      <trkpt lat="49.11845" lon="1.83649">
        <ele>136</ele>
        <time>2018-12-05T16:24:59Z</time>
      </trkpt>
      <trkpt lat="49.11858" lon="1.83676">
        <ele>138</ele>
        <time>2018-12-05T16:25:59Z</time>
      </trkpt>
      <trkpt lat="49.11829" lon="1.8375">
        <ele>139</ele>
        <time>2018-12-05T16:26:59Z</time>
      </trkpt>
      <trkpt lat="49.11799" lon="1.83826">
        <ele>137</ele>
        <time>2018-12-05T16:27:59Z</time>
      </trkpt>
      <trkpt lat="49.11773" lon="1.83936">
        <ele>134</ele>
        <time>2018-12-05T16:28:59Z</time>
      </trkpt>
      <trkpt lat="49.11758" lon="1.84006">
        <ele>133</ele>
        <time>2018-12-05T16:29:59Z</time>
      </trkpt>
      <trkpt lat="49.11711" lon="1.84102">
        <ele>124</ele>
        <time>2018-12-05T16:30:59Z</time>
      </trkpt>
      <trkpt lat="49.11671" lon="1.8417">
        <ele>116</ele>
        <time>2018-12-05T16:31:59Z</time>
      </trkpt>
      <trkpt lat="49.11633" lon="1.84206">
        <ele>114</ele>
        <time>2018-12-05T16:32:59Z</time>
      </trkpt>
      <trkpt lat="49.11564" lon="1.8419">
        <ele>114</ele>
        <time>2018-12-05T16:33:59Z</time>
      </trkpt>
      <trkpt lat="49.11502" lon="1.84181">
        <ele>116</ele>
        <time>2018-12-05T16:34:59Z</time>
      </trkpt>
      <trkpt lat="49.11463" lon="1.84174">
        <ele>116</ele>
        <time>2018-12-05T16:35:59Z</time>
      </trkpt>
      <trkpt lat="49.11426" lon="1.8416">
        <ele>117</ele>
        <time>2018-12-05T16:36:59Z</time>
      </trkpt>
      <trkpt lat="49.11394" lon="1.84181">
        <ele>117</ele>
        <time>2018-12-05T16:37:59Z</time>
      </trkpt>
      <trkpt lat="49.1136" lon="1.84214">
        <ele>118</ele>
        <time>2018-12-05T16:38:59Z</time>
      </trkpt>
      <trkpt lat="49.11323" lon="1.84235">
        <ele>120</ele>
        <time>2018-12-05T16:39:59Z</time>
      </trkpt>
      <trkpt lat="49.1129" lon="1.84275">
        <ele>118</ele>
        <time>2018-12-05T16:40:59Z</time>
      </trkpt>
      <trkpt lat="49.11242" lon="1.84309">
        <ele>116</ele>
        <time>2018-12-05T16:41:59Z</time>
      </trkpt>
      <trkpt lat="49.1119" lon="1.84336">
        <ele>114</ele>
        <time>2018-12-05T16:42:59Z</time>
      </trkpt>
      <trkpt lat="49.11145" lon="1.84378">
        <ele>112</ele>
        <time>2018-12-05T16:43:59Z</time>
      </trkpt>
      <trkpt lat="49.11089" lon="1.84425">
        <ele>111</ele>
        <time>2018-12-05T16:44:59Z</time>
      </trkpt>
      <trkpt lat="49.11075" lon="1.84392">
        <ele>113</ele>
        <time>2018-12-05T16:45:59Z</time>
      </trkpt>
      <trkpt lat="49.11026" lon="1.84378">
        <ele>114</ele>
        <time>2018-12-05T16:46:59Z</time>
      </trkpt>
      <trkpt lat="49.10968" lon="1.84309">
        <ele>115</ele>
        <time>2018-12-05T16:47:59Z</time>
      </trkpt>
      <trkpt lat="49.10935" lon="1.84252">
        <ele>117</ele>
        <time>2018-12-05T16:48:59Z</time>
      </trkpt>
      <trkpt lat="49.10844" lon="1.84125">
        <ele>119</ele>
        <time>2018-12-05T16:49:59Z</time>
      </trkpt>
      <trkpt lat="49.10779" lon="1.84192">
        <ele>107</ele>
        <time>2018-12-05T16:50:59Z</time>
      </trkpt>
      <trkpt lat="49.10755" lon="1.84304">
        <ele>100</ele>
        <time>2018-12-05T16:51:59Z</time>
      </trkpt>
      <trkpt lat="49.10756" lon="1.84403">
        <ele>96</ele>
        <time>2018-12-05T16:52:59Z</time>
      </trkpt>
      <trkpt lat="49.10762" lon="1.84535">
        <ele>94</ele>
        <time>2018-12-05T16:53:59Z</time>
      </trkpt>
      <trkpt lat="49.10765" lon="1.84656">
        <ele>94</ele>
        <time>2018-12-05T16:54:59Z</time>
      </trkpt>
      <trkpt lat="49.10768" lon="1.84764">
        <ele>94</ele>
        <time>2018-12-05T16:55:59Z</time>
      </trkpt>
      <trkpt lat="49.10778" lon="1.84825">
        <ele>95</ele>
        <time>2018-12-05T16:56:59Z</time>
      </trkpt>
      <trkpt lat="49.10814" lon="1.84903">
        <ele>95</ele>
        <time>2018-12-05T16:57:59Z</time>
      </trkpt>
      <trkpt lat="49.10898" lon="1.85055">
        <ele>96</ele>
        <time>2018-12-05T16:58:59Z</time>
      </trkpt>
      <trkpt lat="49.10926" lon="1.85103">
        <ele>97</ele>
        <time>2018-12-05T16:59:59Z</time>
      </trkpt>
      <trkpt lat="49.10961" lon="1.85142">
        <ele>102</ele>
        <time>2018-12-05T17:00:59Z</time>
      </trkpt>
    </trkseg>
  </trk>
</gpx>